createdAt,value
2024-01-24T00:00:37.527Z,83.25
2024-01-24T00:03:25.797Z,83.25
2024-01-24T00:05:54.171Z,83.29
2024-01-24T00:08:24.714Z,83.31
2024-01-24T00:10:54.906Z,83.34
2024-01-24T00:13:22.912Z,83.42
2024-01-24T00:15:50.994Z,83.52
2024-01-24T00:18:19.062Z,83.59
2024-01-24T00:20:47.103Z,83.65
2024-01-24T00:23:14.990Z,83.72
2024-01-24T00:25:42.932Z,83.78
2024-01-24T00:28:10.824Z,83.81
2024-01-24T00:30:38.785Z,83.86
2024-01-24T00:33:06.640Z,83.91
2024-01-24T00:35:34.591Z,83.93
2024-01-24T00:38:02.571Z,83.89
2024-01-24T00:40:30.527Z,83.89
2024-01-24T00:42:58.347Z,83.88
2024-01-24T00:45:26.998Z,83.86
2024-01-24T00:47:54.903Z,83.82
2024-01-24T00:50:23.006Z,83.78
2024-01-24T00:52:53.649Z,83.71
2024-01-24T00:55:21.613Z,83.64
2024-01-24T00:57:49.416Z,83.58
2024-01-24T01:00:18.096Z,83.53
2024-01-24T01:02:45.924Z,83.48
2024-01-24T01:05:13.809Z,83.48
2024-01-24T01:07:41.867Z,83.49
2024-01-24T01:10:10.582Z,83.51
2024-01-24T01:12:38.686Z,83.50
2024-01-24T01:15:07.435Z,83.52
2024-01-24T01:17:35.348Z,83.51
2024-01-24T01:20:04.564Z,83.51
2024-01-24T01:22:34.512Z,83.54
2024-01-24T01:25:02.650Z,83.56
2024-01-24T01:27:30.554Z,83.55
2024-01-24T01:30:00.842Z,83.58
2024-01-24T01:32:28.833Z,83.59
2024-01-24T01:34:57.142Z,83.56
2024-01-24T01:37:25.262Z,83.52
2024-01-24T01:39:53.613Z,83.48
2024-01-24T01:42:21.623Z,83.41
2024-01-24T01:44:49.576Z,83.31
2024-01-24T01:47:18.253Z,83.22
2024-01-24T01:49:47.156Z,83.12
2024-01-24T01:52:17.368Z,83.07
2024-01-24T01:54:46.109Z,83.00
2024-01-24T01:57:17.871Z,82.97
2024-01-24T01:59:46.461Z,82.88
2024-01-24T02:02:15.326Z,82.82
2024-01-24T02:04:43.371Z,82.70
2024-01-24T02:07:11.381Z,82.67
2024-01-24T02:09:39.505Z,82.61
2024-01-24T02:12:07.681Z,82.56
2024-01-24T02:14:35.525Z,82.50
2024-01-24T02:17:03.677Z,82.45
2024-01-24T02:19:31.812Z,82.42
2024-01-24T02:22:00.009Z,82.41
2024-01-24T02:24:28.233Z,82.45
2024-01-24T02:26:56.402Z,82.49
2024-01-24T02:29:24.806Z,82.48
2024-01-24T02:31:52.741Z,82.48
2024-01-24T02:34:20.837Z,82.48
2024-01-24T02:36:48.888Z,82.47
2024-01-24T02:39:16.979Z,82.46
2024-01-24T02:41:44.920Z,82.49
2024-01-24T02:44:12.902Z,82.46
2024-01-24T02:46:40.854Z,82.45
2024-01-24T02:49:08.876Z,82.45
2024-01-24T02:51:37.063Z,82.37
2024-01-24T02:54:05.846Z,82.29
2024-01-24T02:56:34.984Z,82.22
2024-01-24T02:59:02.844Z,82.14
2024-01-24T03:01:30.850Z,82.03
2024-01-24T03:03:58.916Z,81.99
2024-01-24T03:06:27.020Z,81.97
2024-01-24T03:08:59.373Z,81.93
2024-01-24T03:11:27.698Z,81.88
2024-01-24T03:13:55.770Z,81.75
2024-01-24T03:16:23.569Z,81.68
2024-01-24T03:18:53.176Z,81.65
2024-01-24T03:21:21.533Z,81.58
2024-01-24T03:23:49.490Z,81.47
2024-01-24T03:26:18.374Z,81.32
2024-01-24T03:28:46.699Z,81.19
2024-01-24T03:31:15.029Z,81.14
2024-01-24T03:33:43.766Z,81.13
2024-01-24T03:36:12.265Z,80.98
2024-01-24T03:38:40.518Z,80.83
2024-01-24T03:41:08.450Z,80.71
2024-01-24T03:43:41.011Z,80.68
2024-01-24T03:46:09.451Z,80.69
2024-01-24T03:48:37.451Z,80.65
2024-01-24T03:51:09.208Z,80.54
2024-01-24T03:53:37.293Z,80.49
2024-01-24T03:56:05.377Z,80.48
2024-01-24T03:58:33.227Z,80.43
2024-01-24T04:01:01.172Z,80.36
2024-01-24T04:03:29.257Z,80.38
2024-01-24T04:05:57.231Z,80.35
2024-01-24T04:08:25.146Z,80.32
2024-01-24T04:10:53.081Z,80.27
2024-01-24T04:13:21.444Z,80.16
2024-01-24T04:15:49.359Z,80.05
2024-01-24T04:18:17.544Z,79.89
2024-01-24T04:20:45.564Z,79.64
2024-01-24T04:23:13.439Z,79.44
2024-01-24T04:25:41.334Z,79.52
2024-01-24T04:28:10.527Z,79.46
2024-01-24T04:30:41.483Z,79.36
2024-01-24T04:33:09.647Z,79.31
2024-01-24T04:35:37.669Z,79.25
2024-01-24T04:38:05.543Z,79.21
2024-01-24T04:40:34.841Z,79.14
2024-01-24T04:43:03.137Z,79.05
2024-01-24T04:45:33.421Z,78.96
2024-01-24T04:48:01.937Z,78.88
2024-01-24T04:50:29.916Z,78.78
2024-01-24T04:52:57.791Z,78.63
2024-01-24T04:55:25.605Z,78.51
2024-01-24T04:57:53.804Z,78.50
2024-01-24T05:00:21.759Z,78.29
2024-01-24T05:02:49.839Z,78.23
2024-01-24T05:05:17.856Z,78.26
2024-01-24T05:07:45.974Z,78.31
2024-01-24T05:10:13.989Z,78.36
2024-01-24T05:12:42.068Z,78.37
2024-01-24T05:15:11.419Z,78.40
2024-01-24T05:17:40.857Z,78.24
2024-01-24T05:20:10.346Z,78.23
2024-01-24T05:22:38.280Z,78.21
2024-01-24T05:25:06.691Z,78.22
2024-01-24T05:27:34.657Z,78.19
2024-01-24T05:30:12.125Z,78.22
2024-01-24T05:32:46.223Z,78.26
2024-01-24T05:35:14.443Z,78.33
2024-01-24T05:37:42.300Z,78.34
2024-01-24T05:40:10.750Z,78.36
2024-01-24T05:42:39.403Z,78.39
2024-01-24T05:45:08.105Z,78.42
2024-01-24T05:47:36.091Z,78.38
2024-01-24T05:50:05.571Z,78.32
2024-01-24T05:52:33.663Z,78.16
2024-01-24T05:55:01.588Z,78.17
2024-01-24T05:57:29.739Z,78.63
2024-01-24T05:59:57.712Z,79.21
2024-01-24T06:02:25.692Z,80.03
2024-01-24T06:04:53.964Z,80.73
2024-01-24T06:07:22.385Z,81.48
2024-01-24T06:09:50.827Z,82.14
2024-01-24T06:12:18.817Z,82.36
2024-01-24T06:14:46.825Z,82.95
2024-01-24T06:17:14.743Z,83.72
2024-01-24T06:19:44.409Z,84.01
2024-01-24T06:22:12.590Z,84.43
2024-01-24T06:24:41.286Z,84.71
2024-01-24T06:27:12.270Z,85.33
2024-01-24T06:30:16.340Z,85.55
2024-01-24T06:32:28.741Z,86.07
2024-01-24T06:34:56.794Z,86.48
2024-01-24T06:37:24.681Z,86.56
2024-01-24T06:39:52.709Z,86.77
2024-01-24T06:42:21.414Z,86.91
2024-01-24T06:44:49.678Z,87.12
2024-01-24T06:47:17.856Z,87.34
2024-01-24T06:49:45.877Z,87.51
2024-01-24T06:52:13.801Z,87.61
2024-01-24T06:54:41.771Z,87.74
2024-01-24T06:57:09.734Z,87.88
2024-01-24T06:59:38.228Z,88.01
2024-01-24T07:02:07.566Z,88.20
2024-01-24T07:04:35.600Z,88.40
2024-01-24T07:07:03.850Z,88.55
2024-01-24T07:09:31.826Z,88.75
2024-01-24T07:11:59.632Z,88.88
2024-01-24T07:14:27.471Z,89.06
2024-01-24T07:16:55.272Z,89.21
2024-01-24T07:19:23.140Z,89.34
2024-01-24T07:21:51.100Z,89.43
2024-01-24T07:24:18.988Z,89.49
2024-01-24T07:26:46.888Z,89.54
2024-01-24T07:29:16.118Z,89.56
2024-01-24T07:31:43.919Z,89.56
2024-01-24T07:34:13.445Z,89.61
2024-01-24T07:36:43.908Z,89.57
2024-01-24T07:39:11.948Z,89.51
2024-01-24T07:41:39.866Z,89.44
2024-01-24T07:44:07.779Z,89.40
2024-01-24T07:46:39.846Z,89.35
2024-01-24T07:49:08.015Z,89.38
2024-01-24T07:51:36.059Z,89.47
2024-01-24T07:54:04.897Z,89.57
2024-01-24T07:56:32.980Z,89.69
2024-01-24T07:59:02.516Z,89.70
2024-01-24T08:01:30.972Z,89.80
2024-01-24T08:04:02.293Z,89.93
2024-01-24T08:06:30.508Z,90.01
2024-01-24T08:08:58.517Z,90.06
2024-01-24T08:11:26.419Z,90.14
2024-01-24T08:13:54.653Z,90.22
2024-01-24T08:16:22.584Z,90.27
2024-01-24T08:18:50.701Z,90.37
2024-01-24T08:21:18.798Z,90.52
2024-01-24T08:23:49.853Z,90.77
2024-01-24T08:26:20.340Z,90.93
2024-01-24T08:28:51.483Z,91.03
2024-01-24T08:31:19.275Z,91.01
2024-01-24T08:33:50.483Z,91.02
2024-01-24T08:36:20.581Z,91.02
2024-01-24T08:38:50.415Z,91.07
2024-01-24T08:41:18.999Z,91.11
2024-01-24T08:43:47.092Z,91.14
2024-01-24T08:46:15.369Z,91.19
2024-01-24T08:48:43.791Z,91.28
2024-01-24T08:51:13.638Z,91.33
2024-01-24T08:53:41.709Z,91.38
2024-01-24T08:56:11.518Z,91.43
2024-01-24T08:58:39.728Z,91.49
2024-01-24T09:01:07.917Z,91.53
2024-01-24T09:03:36.008Z,91.60
2024-01-24T09:06:05.588Z,91.62
2024-01-24T09:08:34.167Z,91.70
2024-01-24T09:11:02.203Z,91.73
2024-01-24T09:13:31.236Z,91.75
2024-01-24T09:15:59.788Z,91.80
2024-01-24T09:18:29.284Z,91.82
2024-01-24T09:20:57.788Z,91.89
2024-01-24T09:23:26.435Z,91.93
2024-01-24T09:25:54.333Z,91.98
2024-01-24T09:28:22.374Z,92.02
2024-01-24T09:30:50.781Z,92.07
2024-01-24T09:33:19.078Z,92.08
2024-01-24T09:35:47.970Z,92.12
2024-01-24T09:38:16.830Z,92.10
2024-01-24T09:40:44.972Z,92.08
2024-01-24T09:43:15.300Z,92.05
2024-01-24T09:45:44.943Z,92.06
2024-01-24T09:48:13.300Z,92.09
2024-01-24T09:50:42.477Z,92.10
2024-01-24T09:53:16.008Z,92.13
2024-01-24T09:55:44.965Z,92.18
2024-01-24T09:58:14.636Z,92.23
2024-01-24T10:00:46.058Z,92.26
2024-01-24T10:03:14.747Z,92.25
2024-01-24T10:05:46.085Z,92.29
2024-01-24T10:08:14.135Z,92.26
2024-01-24T10:10:44.245Z,92.22
2024-01-24T10:13:12.980Z,92.19
2024-01-24T10:15:41.146Z,92.16
2024-01-24T10:18:09.708Z,92.17
2024-01-24T10:20:37.860Z,92.16
2024-01-24T10:23:05.824Z,92.16
2024-01-24T10:25:33.809Z,92.16
2024-01-24T10:28:02.128Z,92.19
2024-01-24T10:30:30.703Z,92.22
2024-01-24T10:32:59.992Z,92.24
2024-01-24T10:35:30.956Z,92.24
2024-01-24T10:37:59.402Z,92.17
2024-01-24T10:40:30.075Z,92.10
2024-01-24T10:43:06.916Z,92.03
2024-01-24T10:45:42.839Z,92.02
2024-01-24T10:48:15.390Z,92.00
2024-01-24T10:50:48.809Z,91.94
2024-01-24T10:53:21.054Z,91.95
2024-01-24T10:55:51.942Z,91.98
2024-01-24T10:58:21.832Z,92.08
2024-01-24T11:00:52.701Z,92.13
2024-01-24T11:03:21.181Z,92.20
2024-01-24T11:05:55.946Z,92.27
2024-01-24T11:08:52.189Z,92.31
2024-01-24T11:11:24.266Z,92.29
2024-01-24T11:13:53.513Z,92.34
2024-01-24T11:16:48.738Z,92.37
2024-01-24T11:19:22.094Z,92.34
2024-01-24T11:21:52.162Z,92.27
2024-01-24T11:24:45.230Z,92.15
2024-01-24T11:27:26.636Z,91.99
2024-01-24T11:29:57.260Z,91.91
2024-01-24T11:32:48.737Z,91.82
2024-01-24T11:35:32.120Z,91.73
2024-01-24T11:38:13.063Z,91.68
2024-01-24T11:40:52.565Z,91.71
2024-01-24T11:43:26.655Z,91.75
2024-01-24T11:46:09.905Z,91.90
2024-01-24T11:48:41.013Z,92.01
2024-01-24T11:51:11.308Z,91.98
2024-01-24T11:53:39.578Z,91.89
2024-01-24T11:56:11.651Z,91.76
2024-01-24T11:58:39.623Z,91.54
2024-01-24T12:01:14.970Z,91.36
2024-01-24T12:03:51.154Z,91.23
2024-01-24T12:06:20.772Z,91.09
2024-01-24T12:08:50.743Z,90.92
2024-01-24T12:11:20.040Z,90.81
2024-01-24T12:13:48.663Z,90.57
2024-01-24T12:16:16.642Z,90.42
2024-01-24T12:18:45.221Z,90.29
2024-01-24T12:21:13.861Z,90.06
2024-01-24T12:23:43.391Z,89.71
2024-01-24T12:26:11.651Z,89.32
2024-01-24T12:28:39.856Z,89.14
2024-01-24T12:31:09.418Z,88.99
2024-01-24T12:33:38.141Z,88.44
2024-01-24T12:36:07.334Z,88.29
2024-01-24T12:38:37.494Z,88.12
2024-01-24T12:41:05.863Z,87.85
2024-01-24T12:43:34.092Z,87.79
2024-01-24T12:46:07.215Z,87.72
2024-01-24T12:48:36.815Z,87.70
2024-01-24T12:51:05.965Z,87.64
2024-01-24T12:53:34.317Z,87.00
2024-01-24T12:56:03.118Z,86.82
2024-01-24T12:58:33.243Z,86.69
2024-01-24T13:01:01.625Z,86.58
2024-01-24T13:03:30.472Z,86.50
2024-01-24T13:05:59.807Z,86.52
2024-01-24T13:08:28.486Z,86.51
2024-01-24T13:10:57.591Z,86.53
2024-01-24T13:13:25.694Z,86.60
2024-01-24T13:15:55.140Z,86.76
2024-01-24T13:18:24.291Z,86.92
2024-01-24T13:20:52.458Z,86.87
2024-01-24T13:23:20.508Z,86.79
2024-01-24T13:25:48.466Z,86.95
2024-01-24T13:28:16.622Z,87.03
2024-01-24T13:30:45.511Z,87.39
2024-01-24T13:33:13.739Z,87.65
2024-01-24T13:35:42.122Z,87.67
2024-01-24T13:38:10.406Z,87.78
2024-01-24T13:40:39.552Z,88.08
2024-01-24T13:43:08.224Z,88.21
2024-01-24T13:45:39.664Z,88.16
2024-01-24T13:48:10.191Z,88.19
2024-01-24T13:50:44.122Z,88.30
2024-01-24T13:53:12.723Z,88.36
2024-01-24T13:55:41.493Z,88.33
2024-01-24T13:58:09.849Z,88.11
2024-01-24T14:00:38.143Z,87.65
2024-01-24T14:03:06.849Z,87.47
2024-01-24T14:05:35.862Z,87.27
2024-01-24T14:08:07.757Z,87.16
2024-01-24T14:10:35.712Z,87.37
2024-01-24T14:13:06.451Z,87.58
2024-01-24T14:15:36.884Z,87.68
2024-01-24T14:18:06.788Z,87.80
2024-01-24T14:20:35.212Z,87.86
2024-01-24T14:23:03.498Z,87.96
2024-01-24T14:25:31.388Z,88.25
2024-01-24T14:27:59.804Z,88.23
2024-01-24T14:30:27.903Z,88.37
2024-01-24T14:32:58.316Z,88.38
2024-01-24T14:35:26.556Z,88.50
2024-01-24T14:37:55.123Z,88.66
2024-01-24T14:40:23.184Z,88.67
2024-01-24T14:42:51.363Z,88.73
2024-01-24T14:45:19.467Z,88.91
2024-01-24T14:47:48.310Z,88.85
2024-01-24T14:50:16.564Z,88.83
2024-01-24T14:52:44.624Z,88.85
2024-01-24T14:55:12.702Z,88.78
2024-01-24T14:57:41.338Z,88.69
2024-01-24T15:00:13.857Z,88.64
2024-01-24T15:02:41.827Z,88.60
2024-01-24T15:05:10.623Z,88.52
2024-01-24T15:07:39.690Z,88.39
2024-01-24T15:10:09.335Z,88.30
2024-01-24T15:12:38.243Z,88.09
2024-01-24T15:15:08.778Z,88.00
2024-01-24T15:17:37.514Z,87.89
2024-01-24T15:20:06.999Z,87.73
2024-01-24T15:22:36.667Z,87.61
2024-01-24T15:25:07.370Z,87.43
2024-01-24T15:27:35.775Z,87.07
2024-01-24T15:30:07.394Z,86.21
2024-01-24T15:32:35.891Z,86.16
2024-01-24T15:35:06.118Z,85.77
2024-01-24T15:37:34.683Z,85.34
2024-01-24T15:40:08.614Z,84.97
2024-01-24T15:42:43.297Z,85.24
2024-01-24T15:45:13.947Z,85.38
2024-01-24T15:47:42.411Z,85.30
2024-01-24T15:50:11.427Z,85.35
2024-01-24T15:52:41.834Z,85.36
2024-01-24T15:55:10.837Z,85.42
2024-01-24T15:57:39.381Z,85.43
2024-01-24T16:00:11.353Z,85.37
2024-01-24T16:02:41.474Z,85.45
2024-01-24T16:05:25.178Z,85.44
2024-01-24T16:07:53.535Z,85.45
2024-01-24T16:10:21.611Z,85.27
2024-01-24T16:12:50.125Z,85.40
2024-01-24T16:15:18.336Z,85.42
2024-01-24T16:17:46.228Z,85.23
2024-01-24T16:20:14.523Z,85.04
2024-01-24T16:22:50.930Z,84.65
2024-01-24T16:25:25.225Z,83.52
2024-01-24T16:27:54.498Z,83.19
2024-01-24T16:30:26.975Z,83.21
2024-01-24T16:32:56.021Z,83.26
2024-01-24T16:35:25.056Z,83.07
2024-01-24T16:37:53.212Z,82.64
2024-01-24T16:40:21.370Z,82.49
2024-01-24T16:42:50.573Z,82.36
2024-01-24T16:45:18.774Z,82.38
2024-01-24T16:47:46.794Z,81.69
2024-01-24T16:50:14.885Z,81.69
2024-01-24T16:52:45.323Z,81.74
2024-01-24T16:55:13.819Z,81.51
2024-01-24T16:57:41.750Z,81.39
2024-01-24T17:00:10.686Z,81.10
2024-01-24T17:02:45.937Z,81.09
2024-01-24T17:05:18.786Z,80.67
2024-01-24T17:07:47.345Z,80.89
2024-01-24T17:10:15.851Z,80.45
2024-01-24T17:12:43.761Z,80.54
2024-01-24T17:15:14.829Z,80.66
2024-01-24T17:17:46.200Z,80.64
2024-01-24T17:20:14.263Z,80.55
2024-01-24T17:22:42.216Z,80.61
2024-01-24T17:25:11.777Z,80.32
2024-01-24T17:27:39.990Z,80.23
2024-01-24T17:30:09.039Z,80.35
2024-01-24T17:32:37.010Z,80.32
2024-01-24T17:35:06.033Z,80.33
2024-01-24T17:37:34.575Z,80.20
2024-01-24T17:40:02.978Z,79.78
2024-01-24T17:42:31.523Z,80.07
2024-01-24T17:44:59.680Z,79.54
2024-01-24T17:47:27.985Z,79.68
2024-01-24T17:49:56.130Z,79.85
2024-01-24T17:52:24.081Z,79.95
2024-01-24T17:54:52.572Z,80.04
2024-01-24T17:57:20.532Z,79.92
2024-01-24T17:59:49.419Z,79.93
2024-01-24T18:02:18.314Z,80.13
2024-01-24T18:04:46.208Z,80.31
2024-01-24T18:07:14.268Z,80.60
2024-01-24T18:09:43.932Z,80.58
2024-01-24T18:12:12.545Z,80.58
2024-01-24T18:14:42.446Z,80.08
2024-01-24T18:17:10.358Z,79.85
2024-01-24T18:19:38.408Z,80.09
2024-01-24T18:22:06.756Z,80.07
2024-01-24T18:24:34.693Z,80.38
2024-01-24T18:27:02.629Z,80.30
2024-01-24T18:29:30.561Z,80.37
2024-01-24T18:31:59.662Z,80.73
2024-01-24T18:34:28.309Z,81.08
2024-01-24T18:36:56.548Z,81.47
2024-01-24T18:39:24.561Z,81.91
2024-01-24T18:41:52.548Z,82.78
2024-01-24T18:44:20.518Z,83.14
2024-01-24T18:46:51.367Z,83.55
2024-01-24T18:49:20.258Z,83.95
2024-01-24T18:51:48.326Z,84.37
2024-01-24T18:54:17.516Z,84.45
2024-01-24T18:56:45.727Z,84.44
2024-01-24T18:59:13.805Z,84.19
2024-01-24T19:01:42.215Z,83.98
2024-01-24T19:04:10.461Z,83.89
2024-01-24T19:06:39.263Z,83.67
2024-01-24T19:09:08.750Z,83.03
2024-01-24T19:11:37.588Z,83.21
2024-01-24T19:14:06.404Z,83.25
2024-01-24T19:16:34.598Z,83.16
2024-01-24T19:19:02.746Z,83.01
2024-01-24T19:21:30.843Z,83.09
2024-01-24T19:23:59.175Z,83.08
2024-01-24T19:26:32.773Z,83.03
2024-01-24T19:29:00.844Z,82.94
2024-01-24T19:31:28.932Z,82.68
2024-01-24T19:33:56.869Z,82.58
2024-01-24T19:36:24.936Z,82.51
2024-01-24T19:38:52.963Z,82.47
2024-01-24T19:41:22.990Z,82.41
2024-01-24T19:43:51.590Z,82.26
2024-01-24T19:46:21.067Z,82.25
2024-01-24T19:48:49.484Z,82.32
2024-01-24T19:51:17.504Z,82.23
2024-01-24T19:53:46.570Z,82.16
2024-01-24T19:56:14.468Z,82.13
2024-01-24T19:58:42.299Z,82.02
2024-01-24T20:01:10.298Z,82.13
2024-01-24T20:03:38.773Z,81.98
2024-01-24T20:06:07.155Z,81.77
2024-01-24T20:08:37.993Z,81.57
2024-01-24T20:11:05.892Z,81.35
2024-01-24T20:13:35.973Z,81.37
2024-01-24T20:16:04.674Z,81.28
2024-01-24T20:18:32.732Z,81.18
2024-01-24T20:21:01.118Z,81.23
2024-01-24T20:23:30.861Z,81.26
2024-01-24T20:26:00.220Z,81.29
2024-01-24T20:28:28.284Z,81.06
2024-01-24T20:30:56.267Z,81.34
2024-01-24T20:33:24.320Z,81.42
2024-01-24T20:35:54.260Z,81.23
2024-01-24T20:38:22.820Z,81.60
2024-01-24T20:40:53.353Z,81.32
2024-01-24T20:43:21.255Z,81.35
2024-01-24T20:45:49.349Z,81.45
2024-01-24T20:48:18.428Z,81.52
2024-01-24T20:50:46.450Z,81.30
2024-01-24T20:53:19.042Z,81.19
2024-01-24T20:55:46.986Z,80.84
2024-01-24T20:58:15.085Z,80.67
2024-01-24T21:00:43.652Z,81.15
2024-01-24T21:03:11.764Z,81.68
2024-01-24T21:05:40.180Z,82.26
2024-01-24T21:08:09.343Z,82.73
2024-01-24T21:10:42.082Z,83.18
2024-01-24T21:13:16.705Z,83.60
2024-01-24T21:15:44.806Z,84.15
2024-01-24T21:18:12.853Z,84.64
2024-01-24T21:20:42.516Z,84.77
2024-01-24T21:23:10.576Z,84.81
2024-01-24T21:25:38.586Z,84.70
2024-01-24T21:28:08.901Z,84.62
2024-01-24T21:30:37.588Z,84.33
2024-01-24T21:33:05.816Z,83.77
2024-01-24T21:35:33.848Z,83.27
2024-01-24T21:38:01.807Z,82.95
2024-01-24T21:40:29.777Z,82.61
2024-01-24T21:42:57.705Z,81.98
2024-01-24T21:45:25.713Z,81.98
2024-01-24T21:47:53.698Z,81.53
2024-01-24T21:50:21.657Z,81.46
2024-01-24T21:52:49.522Z,81.17
2024-01-24T21:55:18.028Z,81.70
2024-01-24T21:57:51.460Z,82.24
2024-01-24T22:00:20.694Z,82.45
2024-01-24T22:02:49.246Z,82.54
2024-01-24T22:05:19.066Z,82.30
2024-01-24T22:07:51.526Z,81.86
2024-01-24T22:10:19.951Z,81.75
2024-01-24T22:12:49.119Z,81.85
2024-01-24T22:15:18.434Z,82.50
2024-01-24T22:17:46.341Z,83.07
2024-01-24T22:20:14.748Z,83.42
2024-01-24T22:25:17.354Z,84.03
2024-01-24T22:27:45.507Z,84.15
2024-01-24T22:30:15.208Z,84.27
2024-01-24T22:32:44.041Z,84.39
2024-01-24T22:35:12.596Z,84.76
2024-01-24T22:37:40.685Z,85.09
2024-01-24T22:40:09.138Z,85.42
2024-01-24T22:42:37.118Z,85.66
2024-01-24T22:45:05.825Z,85.64
2024-01-24T22:47:33.613Z,85.62
2024-01-24T22:50:01.821Z,85.83
2024-01-24T22:52:29.865Z,86.03
2024-01-24T22:54:57.831Z,86.16
2024-01-24T22:57:25.900Z,86.26
2024-01-24T22:59:55.988Z,86.24
2024-01-24T23:02:25.753Z,86.25
2024-01-24T23:04:56.186Z,86.19
2024-01-24T23:07:24.118Z,86.10
2024-01-24T23:09:52.190Z,86.03
2024-01-24T23:12:20.331Z,85.82
2024-01-24T23:14:48.536Z,85.65
2024-01-24T23:17:16.476Z,85.60
2024-01-24T23:19:46.432Z,85.60
2024-01-24T23:22:14.455Z,85.57
2024-01-24T23:24:42.608Z,85.58
2024-01-24T23:27:10.805Z,85.54
2024-01-24T23:29:38.771Z,85.53
2024-01-24T23:32:07.434Z,85.51
2024-01-24T23:34:35.723Z,85.30
2024-01-24T23:37:04.119Z,85.00
2024-01-24T23:39:32.209Z,84.66
2024-01-24T23:42:00.261Z,84.38
2024-01-24T23:44:28.150Z,84.32
2024-01-24T23:46:56.088Z,84.04
2024-01-24T23:49:24.271Z,84.07
2024-01-24T23:51:52.740Z,84.10
2024-01-24T23:54:20.748Z,84.12
2024-01-24T23:56:48.612Z,84.01
2024-01-24T23:59:16.685Z,83.98
